메인 페이지
METAR-TAF:

METAR-TAF

공항 :

부줌부라, 부룬디

위도: 03-19S, 경도: 029-19E, 고도: 782m

METAR: 누락

시각: 03:01 (01:01 UTC)

예보

예보는 2 시간 1분 전, 23:00시(UTC)에 발표되었습니다.
예보 대상 시간: 10일 00시부터 11일 06시까지 (UTC)
10kt, 순간 최대 풍속 25kt
시정 10km 이상
고도 8000ft 상공 구름 조금
고도 3000ft 상공 구름 조금
고도 10000ft 상공 구름 많음
확률 40%
TE시부터 MP시까지 (UTC)
여러 방향의 바람 2kt
시정 10km 이상
고도 8000ft 상공 구름 조금
약한비

TAF: HBBA 092300Z 1000/1106 36003KT 9999 FEW080 BECMG1003/1004 36002KT CAVOK BECMG1008/1010 18010G25KT 9999 FEW030 BKN100 PROB40 TEMPO1011/1015 8000 -RA BECMG1017/1019 VRB02KT 9999 FEW080

4,000개 이상의 공항 관측 자료 및 예보 (METAR 및 TAF 보고).

지도상에서 검색 가능한 기상관측소가 노란 점과 빨간 점으로 표시되어 있습니다.

기상관측소 명을 보려면 표시 위로 마우스를 이동하세요.

날씨 관측과 예보를 보려면 클릭하세요.

지도 변경 : 확대하려면 엑스 표시가 있는 녹색 버튼, 축소하려면 빼기 표시가 있는 녹색 버튼, 다음 페이지의 지도를 보려면 녹색 화살표를 클릭하세요.


METAR-TAF: